sensor_id;sensor_type;location;lat;lon;timestamp;P1;durP1;ratioP1;P2;durP2;ratioP2
41719;SDS011;27405;53.316;-6.294;2023-06-14T00:00:20;13.70;;;9.43;;
41719;SDS011;27405;53.316;-6.294;2023-06-14T00:02:46;14.23;;;9.63;;
41719;SDS011;27405;53.316;-6.294;2023-06-14T00:05:12;16.10;;;9.10;;
41719;SDS011;27405;53.316;-6.294;2023-06-14T00:07:39;15.65;;;10.30;;
41719;SDS011;27405;53.316;-6.294;2023-06-14T00:10:10;16.48;;;10.50;;
41719;SDS011;27405;53.316;-6.294;2023-06-14T00:12:36;20.02;;;10.40;;
41719;SDS011;27405;53.316;-6.294;2023-06-14T00:15:03;15.25;;;9.93;;
41719;SDS011;27405;53.316;-6.294;2023-06-14T00:17:29;16.90;;;10.25;;
41719;SDS011;27405;53.316;-6.294;2023-06-14T00:19:58;15.63;;;10.85;;
41719;SDS011;27405;53.316;-6.294;2023-06-14T00:22:24;16.23;;;10.32;;
41719;SDS011;27405;53.316;-6.294;2023-06-14T00:24:54;16.58;;;10.07;;
41719;SDS011;27405;53.316;-6.294;2023-06-14T00:27:19;15.95;;;11.02;;
41719;SDS011;27405;53.316;-6.294;2023-06-14T00:29:45;18.95;;;12.05;;
41719;SDS011;27405;53.316;-6.294;2023-06-14T00:32:11;18.67;;;12.25;;
41719;SDS011;27405;53.316;-6.294;2023-06-14T00:34:36;18.58;;;11.98;;
41719;SDS011;27405;53.316;-6.294;2023-06-14T00:37:02;19.48;;;12.85;;
41719;SDS011;27405;53.316;-6.294;2023-06-14T00:39:28;21.80;;;13.57;;
41719;SDS011;27405;53.316;-6.294;2023-06-14T00:41:54;21.27;;;13.07;;
41719;SDS011;27405;53.316;-6.294;2023-06-14T00:44:19;18.92;;;13.02;;
41719;SDS011;27405;53.316;-6.294;2023-06-14T00:46:46;24.33;;;14.68;;
41719;SDS011;27405;53.316;-6.294;2023-06-14T00:49:12;23.23;;;14.63;;
41719;SDS011;27405;53.316;-6.294;2023-06-14T00:51:40;22.00;;;13.80;;
41719;SDS011;27405;53.316;-6.294;2023-06-14T00:54:10;19.88;;;14.07;;
41719;SDS011;27405;53.316;-6.294;2023-06-14T00:56:36;27.60;;;15.48;;
41719;SDS011;27405;53.316;-6.294;2023-06-14T00:59:02;22.08;;;14.77;;
41719;SDS011;27405;53.316;-6.294;2023-06-14T01:01:29;23.20;;;15.55;;
41719;SDS011;27405;53.316;-6.294;2023-06-14T01:03:59;20.50;;;15.35;;
41719;SDS011;27405;53.316;-6.294;2023-06-14T01:09:27;22.85;;;14.82;;
41719;SDS011;27405;53.316;-6.294;2023-06-14T01:12:15;24.60;;;15.13;;
41719;SDS011;27405;53.316;-6.294;2023-06-14T01:14:54;22.55;;;15.02;;
41719;SDS011;27405;53.316;-6.294;2023-06-14T01:17:22;24.83;;;16.52;;
41719;SDS011;27405;53.316;-6.294;2023-06-14T01:19:48;23.85;;;16.15;;
41719;SDS011;27405;53.316;-6.294;2023-06-14T01:22:22;22.27;;;16.15;;
41719;SDS011;27405;53.316;-6.294;2023-06-14T01:24:51;24.92;;;16.45;;
41719;SDS011;27405;53.316;-6.294;2023-06-14T01:27:20;24.02;;;16.67;;
41719;SDS011;27405;53.316;-6.294;2023-06-14T01:29:48;23.77;;;15.77;;
41719;SDS011;27405;53.316;-6.294;2023-06-14T01:32:21;25.42;;;17.33;;
41719;SDS011;27405;53.316;-6.294;2023-06-14T01:34:48;23.80;;;17.95;;
41719;SDS011;27405;53.316;-6.294;2023-06-14T01:37:14;21.55;;;16.35;;
41719;SDS011;27405;53.316;-6.294;2023-06-14T01:39:41;24.92;;;17.23;;
41719;SDS011;27405;53.316;-6.294;2023-06-14T01:42:08;22.63;;;16.70;;
41719;SDS011;27405;53.316;-6.294;2023-06-14T01:44:36;23.48;;;16.52;;
41719;SDS011;27405;53.316;-6.294;2023-06-14T01:47:02;22.75;;;16.10;;
41719;SDS011;27405;53.316;-6.294;2023-06-14T01:49:28;24.75;;;16.77;;
41719;SDS011;27405;53.316;-6.294;2023-06-14T01:51:54;21.73;;;15.80;;
41719;SDS011;27405;53.316;-6.294;2023-06-14T01:54:19;24.13;;;15.77;;
41719;SDS011;27405;53.316;-6.294;2023-06-14T01:56:46;21.90;;;15.70;;
41719;SDS011;27405;53.316;-6.294;2023-06-14T01:59:12;27.17;;;16.08;;
41719;SDS011;27405;53.316;-6.294;2023-06-14T02:01:38;23.65;;;16.23;;
41719;SDS011;27405;53.316;-6.294;2023-06-14T02:04:03;20.20;;;14.02;;
41719;SDS011;27405;53.316;-6.294;2023-06-14T02:06:29;21.75;;;15.10;;
41719;SDS011;27405;53.316;-6.294;2023-06-14T02:08:55;22.10;;;14.88;;
41719;SDS011;27405;53.316;-6.294;2023-06-14T02:11:20;23.85;;;15.52;;
41719;SDS011;27405;53.316;-6.294;2023-06-14T02:13:46;21.38;;;15.27;;
41719;SDS011;27405;53.316;-6.294;2023-06-14T02:16:12;22.85;;;15.25;;
41719;SDS011;27405;53.316;-6.294;2023-06-14T02:18:39;22.45;;;15.00;;
41719;SDS011;27405;53.316;-6.294;2023-06-14T02:21:05;19.90;;;14.13;;
41719;SDS011;27405;53.316;-6.294;2023-06-14T02:23:30;20.70;;;14.52;;
41719;SDS011;27405;53.316;-6.294;2023-06-14T02:25:57;21.00;;;14.45;;
41719;SDS011;27405;53.316;-6.294;2023-06-14T02:28:22;20.55;;;14.15;;
41719;SDS011;27405;53.316;-6.294;2023-06-14T02:30:48;20.92;;;14.77;;
41719;SDS011;27405;53.316;-6.294;2023-06-14T02:33:14;19.90;;;14.75;;
41719;SDS011;27405;53.316;-6.294;2023-06-14T02:35:40;24.73;;;16.02;;
41719;SDS011;27405;53.316;-6.294;2023-06-14T02:38:05;24.75;;;15.57;;
41719;SDS011;27405;53.316;-6.294;2023-06-14T02:40:31;22.67;;;15.90;;
41719;SDS011;27405;53.316;-6.294;2023-06-14T02:42:56;23.40;;;15.60;;
41719;SDS011;27405;53.316;-6.294;2023-06-14T02:45:22;22.52;;;15.15;;
41719;SDS011;27405;53.316;-6.294;2023-06-14T02:47:48;21.58;;;15.32;;
41719;SDS011;27405;53.316;-6.294;2023-06-14T02:50:13;21.85;;;15.65;;
41719;SDS011;27405;53.316;-6.294;2023-06-14T02:52:39;19.45;;;14.45;;
41719;SDS011;27405;53.316;-6.294;2023-06-14T02:55:06;20.42;;;13.45;;
41719;SDS011;27405;53.316;-6.294;2023-06-14T02:57:33;21.30;;;14.23;;
41719;SDS011;27405;53.316;-6.294;2023-06-14T02:59:59;20.58;;;14.00;;
41719;SDS011;27405;53.316;-6.294;2023-06-14T03:02:24;20.67;;;13.02;;
41719;SDS011;27405;53.316;-6.294;2023-06-14T03:04:50;19.13;;;13.43;;
41719;SDS011;27405;53.316;-6.294;2023-06-14T03:07:16;19.58;;;13.93;;
41719;SDS011;27405;53.316;-6.294;2023-06-14T03:09:44;20.80;;;13.52;;
41719;SDS011;27405;53.316;-6.294;2023-06-14T03:12:10;20.67;;;14.07;;
41719;SDS011;27405;53.316;-6.294;2023-06-14T03:14:36;19.23;;;13.43;;
41719;SDS011;27405;53.316;-6.294;2023-06-14T03:17:03;23.27;;;12.73;;
41719;SDS011;27405;53.316;-6.294;2023-06-14T03:19:29;19.92;;;11.98;;
41719;SDS011;27405;53.316;-6.294;2023-06-14T03:21:55;19.88;;;11.90;;
41719;SDS011;27405;53.316;-6.294;2023-06-14T03:24:24;18.83;;;11.80;;
41719;SDS011;27405;53.316;-6.294;2023-06-14T03:26:53;16.17;;;11.00;;
41719;SDS011;27405;53.316;-6.294;2023-06-14T03:29:20;21.35;;;11.70;;
41719;SDS011;27405;53.316;-6.294;2023-06-14T03:31:59;16.98;;;11.02;;
41719;SDS011;27405;53.316;-6.294;2023-06-14T03:34:28;19.65;;;11.70;;
41719;SDS011;27405;53.316;-6.294;2023-06-14T03:36:54;17.77;;;9.80;;
41719;SDS011;27405;53.316;-6.294;2023-06-14T03:39:19;15.95;;;9.20;;
41719;SDS011;27405;53.316;-6.294;2023-06-14T03:41:46;13.23;;;7.93;;
41719;SDS011;27405;53.316;-6.294;2023-06-14T03:44:13;13.10;;;7.47;;
41719;SDS011;27405;53.316;-6.294;2023-06-14T03:46:41;16.48;;;8.00;;
41719;SDS011;27405;53.316;-6.294;2023-06-14T03:49:07;13.00;;;7.78;;
41719;SDS011;27405;53.316;-6.294;2023-06-14T03:51:32;12.02;;;7.60;;
41719;SDS011;27405;53.316;-6.294;2023-06-14T03:54:00;13.32;;;7.45;;
41719;SDS011;27405;53.316;-6.294;2023-06-14T03:56:26;11.25;;;7.13;;
41719;SDS011;27405;53.316;-6.294;2023-06-14T03:58:52;12.55;;;7.65;;
41719;SDS011;27405;53.316;-6.294;2023-06-14T04:01:18;15.15;;;7.28;;
41719;SDS011;27405;53.316;-6.294;2023-06-14T04:03:43;17.17;;;8.10;;
41719;SDS011;27405;53.316;-6.294;2023-06-14T04:06:09;12.77;;;7.30;;
41719;SDS011;27405;53.316;-6.294;2023-06-14T04:08:34;14.20;;;7.57;;
41719;SDS011;27405;53.316;-6.294;2023-06-14T04:11:01;14.25;;;7.10;;
41719;SDS011;27405;53.316;-6.294;2023-06-14T04:13:26;13.48;;;7.60;;
41719;SDS011;27405;53.316;-6.294;2023-06-14T04:15:52;11.07;;;6.63;;
41719;SDS011;27405;53.316;-6.294;2023-06-14T04:18:18;16.05;;;6.75;;
41719;SDS011;27405;53.316;-6.294;2023-06-14T04:20:45;11.70;;;7.28;;
41719;SDS011;27405;53.316;-6.294;2023-06-14T04:23:14;13.15;;;7.18;;
41719;SDS011;27405;53.316;-6.294;2023-06-14T04:25:43;18.48;;;7.35;;
41719;SDS011;27405;53.316;-6.294;2023-06-14T04:28:13;14.77;;;6.53;;
41719;SDS011;27405;53.316;-6.294;2023-06-14T04:30:42;16.77;;;7.93;;
41719;SDS011;27405;53.316;-6.294;2023-06-14T04:33:09;15.27;;;8.38;;
41719;SDS011;27405;53.316;-6.294;2023-06-14T04:35:36;13.52;;;7.18;;
41719;SDS011;27405;53.316;-6.294;2023-06-14T04:38:05;12.20;;;7.20;;
41719;SDS011;27405;53.316;-6.294;2023-06-14T04:40:34;13.60;;;7.38;;
41719;SDS011;27405;53.316;-6.294;2023-06-14T04:43:07;13.93;;;7.22;;
41719;SDS011;27405;53.316;-6.294;2023-06-14T04:45:33;14.98;;;7.53;;
41719;SDS011;27405;53.316;-6.294;2023-06-14T04:47:59;15.00;;;6.70;;
41719;SDS011;27405;53.316;-6.294;2023-06-14T04:50:25;13.82;;;6.95;;
41719;SDS011;27405;53.316;-6.294;2023-06-14T04:52:52;17.80;;;6.90;;
41719;SDS011;27405;53.316;-6.294;2023-06-14T04:55:18;14.60;;;7.63;;
41719;SDS011;27405;53.316;-6.294;2023-06-14T04:57:44;13.45;;;7.05;;
41719;SDS011;27405;53.316;-6.294;2023-06-14T05:00:10;11.75;;;7.22;;
41719;SDS011;27405;53.316;-6.294;2023-06-14T05:02:37;15.35;;;7.60;;
41719;SDS011;27405;53.316;-6.294;2023-06-14T05:05:03;12.48;;;7.80;;
41719;SDS011;27405;53.316;-6.294;2023-06-14T05:07:32;13.13;;;7.55;;
41719;SDS011;27405;53.316;-6.294;2023-06-14T05:09:59;15.98;;;7.60;;
41719;SDS011;27405;53.316;-6.294;2023-06-14T05:12:24;16.80;;;8.13;;
41719;SDS011;27405;53.316;-6.294;2023-06-14T05:14:50;14.65;;;7.72;;
41719;SDS011;27405;53.316;-6.294;2023-06-14T05:17:17;14.73;;;7.43;;
41719;SDS011;27405;53.316;-6.294;2023-06-14T05:19:43;23.88;;;7.95;;
41719;SDS011;27405;53.316;-6.294;2023-06-14T05:22:09;14.57;;;7.50;;
41719;SDS011;27405;53.316;-6.294;2023-06-14T05:24:35;15.10;;;7.10;;
41719;SDS011;27405;53.316;-6.294;2023-06-14T05:27:00;14.43;;;7.75;;
41719;SDS011;27405;53.316;-6.294;2023-06-14T05:29:26;13.45;;;7.18;;
41719;SDS011;27405;53.316;-6.294;2023-06-14T05:31:52;14.88;;;6.93;;
41719;SDS011;27405;53.316;-6.294;2023-06-14T05:34:18;15.13;;;7.35;;
41719;SDS011;27405;53.316;-6.294;2023-06-14T05:36:44;16.58;;;7.35;;
41719;SDS011;27405;53.316;-6.294;2023-06-14T05:39:09;15.70;;;7.15;;
41719;SDS011;27405;53.316;-6.294;2023-06-14T05:41:35;15.35;;;7.30;;
41719;SDS011;27405;53.316;-6.294;2023-06-14T05:44:01;11.65;;;6.80;;
41719;SDS011;27405;53.316;-6.294;2023-06-14T05:46:27;15.38;;;7.00;;
41719;SDS011;27405;53.316;-6.294;2023-06-14T05:48:53;12.35;;;6.97;;
41719;SDS011;27405;53.316;-6.294;2023-06-14T05:51:19;16.55;;;6.80;;
41719;SDS011;27405;53.316;-6.294;2023-06-14T05:53:48;12.85;;;6.10;;
41719;SDS011;27405;53.316;-6.294;2023-06-14T05:56:14;15.40;;;6.53;;
41719;SDS011;27405;53.316;-6.294;2023-06-14T06:01:08;14.90;;;7.30;;
41719;SDS011;27405;53.316;-6.294;2023-06-14T06:03:34;11.88;;;6.00;;
41719;SDS011;27405;53.316;-6.294;2023-06-14T06:06:00;14.07;;;6.50;;
41719;SDS011;27405;53.316;-6.294;2023-06-14T06:08:26;13.00;;;6.60;;
41719;SDS011;27405;53.316;-6.294;2023-06-14T06:10:52;11.63;;;5.85;;
41719;SDS011;27405;53.316;-6.294;2023-06-14T06:13:18;13.27;;;6.05;;
41719;SDS011;27405;53.316;-6.294;2023-06-14T06:15:44;10.55;;;5.75;;
41719;SDS011;27405;53.316;-6.294;2023-06-14T06:18:10;13.23;;;5.90;;
41719;SDS011;27405;53.316;-6.294;2023-06-14T06:20:36;10.98;;;5.95;;
41719;SDS011;27405;53.316;-6.294;2023-06-14T06:23:02;12.15;;;5.82;;
41719;SDS011;27405;53.316;-6.294;2023-06-14T06:25:28;14.02;;;5.82;;
41719;SDS011;27405;53.316;-6.294;2023-06-14T06:27:54;11.95;;;5.65;;
41719;SDS011;27405;53.316;-6.294;2023-06-14T06:30:23;15.48;;;5.43;;
41719;SDS011;27405;53.316;-6.294;2023-06-14T06:32:49;12.90;;;6.18;;
41719;SDS011;27405;53.316;-6.294;2023-06-14T06:35:15;14.50;;;6.45;;
41719;SDS011;27405;53.316;-6.294;2023-06-14T06:37:41;14.65;;;6.70;;
41719;SDS011;27405;53.316;-6.294;2023-06-14T06:40:07;14.27;;;6.07;;
41719;SDS011;27405;53.316;-6.294;2023-06-14T06:42:33;13.70;;;6.13;;
41719;SDS011;27405;53.316;-6.294;2023-06-14T06:44:59;13.65;;;6.47;;
41719;SDS011;27405;53.316;-6.294;2023-06-14T06:47:25;13.48;;;6.65;;
41719;SDS011;27405;53.316;-6.294;2023-06-14T06:49:51;15.15;;;6.05;;
41719;SDS011;27405;53.316;-6.294;2023-06-14T06:52:17;11.82;;;6.20;;
41719;SDS011;27405;53.316;-6.294;2023-06-14T06:54:43;11.60;;;6.20;;
41719;SDS011;27405;53.316;-6.294;2023-06-14T06:57:09;10.77;;;5.60;;
41719;SDS011;27405;53.316;-6.294;2023-06-14T06:59:36;13.27;;;5.60;;
41719;SDS011;27405;53.316;-6.294;2023-06-14T07:02:02;12.13;;;5.70;;
41719;SDS011;27405;53.316;-6.294;2023-06-14T07:04:28;11.95;;;5.65;;
41719;SDS011;27405;53.316;-6.294;2023-06-14T07:06:54;12.60;;;5.53;;
41719;SDS011;27405;53.316;-6.294;2023-06-14T07:09:19;14.32;;;5.70;;
41719;SDS011;27405;53.316;-6.294;2023-06-14T07:11:46;12.23;;;6.13;;
41719;SDS011;27405;53.316;-6.294;2023-06-14T07:14:12;13.60;;;6.38;;
41719;SDS011;27405;53.316;-6.294;2023-06-14T07:16:38;13.38;;;5.80;;
41719;SDS011;27405;53.316;-6.294;2023-06-14T07:19:04;9.25;;;5.65;;
41719;SDS011;27405;53.316;-6.294;2023-06-14T07:21:30;12.00;;;5.50;;
41719;SDS011;27405;53.316;-6.294;2023-06-14T07:23:56;10.63;;;5.30;;
41719;SDS011;27405;53.316;-6.294;2023-06-14T07:26:22;10.55;;;5.32;;
41719;SDS011;27405;53.316;-6.294;2023-06-14T07:28:48;10.32;;;5.32;;
41719;SDS011;27405;53.316;-6.294;2023-06-14T07:31:17;10.43;;;5.80;;
41719;SDS011;27405;53.316;-6.294;2023-06-14T07:33:44;9.60;;;5.00;;
41719;SDS011;27405;53.316;-6.294;2023-06-14T07:36:10;8.88;;;5.15;;
41719;SDS011;27405;53.316;-6.294;2023-06-14T07:38:36;11.63;;;5.25;;
41719;SDS011;27405;53.316;-6.294;2023-06-14T07:41:02;21.98;;;5.13;;
41719;SDS011;27405;53.316;-6.294;2023-06-14T07:43:28;11.50;;;5.32;;
41719;SDS011;27405;53.316;-6.294;2023-06-14T07:45:54;14.05;;;7.00;;
41719;SDS011;27405;53.316;-6.294;2023-06-14T07:48:20;10.50;;;5.07;;
41719;SDS011;27405;53.316;-6.294;2023-06-14T07:50:46;11.93;;;5.03;;
41719;SDS011;27405;53.316;-6.294;2023-06-14T07:53:12;9.80;;;4.97;;
41719;SDS011;27405;53.316;-6.294;2023-06-14T07:55:37;11.70;;;5.03;;
41719;SDS011;27405;53.316;-6.294;2023-06-14T07:58:04;11.50;;;5.35;;
41719;SDS011;27405;53.316;-6.294;2023-06-14T08:00:32;10.82;;;5.40;;
41719;SDS011;27405;53.316;-6.294;2023-06-14T08:02:58;12.88;;;4.95;;
41719;SDS011;27405;53.316;-6.294;2023-06-14T08:05:27;10.00;;;4.78;;
41719;SDS011;27405;53.316;-6.294;2023-06-14T08:07:54;10.23;;;5.15;;
41719;SDS011;27405;53.316;-6.294;2023-06-14T08:10:20;10.82;;;4.88;;
41719;SDS011;27405;53.316;-6.294;2023-06-14T08:12:47;11.20;;;5.00;;
41719;SDS011;27405;53.316;-6.294;2023-06-14T08:15:16;10.43;;;4.93;;
41719;SDS011;27405;53.316;-6.294;2023-06-14T08:17:45;13.88;;;5.32;;
41719;SDS011;27405;53.316;-6.294;2023-06-14T08:22:38;9.32;;;5.00;;
41719;SDS011;27405;53.316;-6.294;2023-06-14T08:27:33;13.02;;;4.97;;
41719;SDS011;27405;53.316;-6.294;2023-06-14T08:29:58;11.23;;;5.30;;
41719;SDS011;27405;53.316;-6.294;2023-06-14T08:32:24;7.82;;;4.68;;
41719;SDS011;27405;53.316;-6.294;2023-06-14T08:34:50;8.32;;;4.97;;
41719;SDS011;27405;53.316;-6.294;2023-06-14T08:37:16;10.82;;;5.03;;
41719;SDS011;27405;53.316;-6.294;2023-06-14T08:39:42;11.43;;;5.10;;
41719;SDS011;27405;53.316;-6.294;2023-06-14T08:42:09;13.13;;;4.53;;
41719;SDS011;27405;53.316;-6.294;2023-06-14T08:44:35;9.55;;;5.10;;
41719;SDS011;27405;53.316;-6.294;2023-06-14T08:47:01;12.05;;;5.72;;
41719;SDS011;27405;53.316;-6.294;2023-06-14T08:49:28;9.35;;;5.07;;
41719;SDS011;27405;53.316;-6.294;2023-06-14T08:51:59;12.50;;;5.35;;
41719;SDS011;27405;53.316;-6.294;2023-06-14T08:54:29;11.27;;;5.28;;
41719;SDS011;27405;53.316;-6.294;2023-06-14T08:56:58;9.15;;;4.53;;
41719;SDS011;27405;53.316;-6.294;2023-06-14T08:59:25;10.45;;;4.82;;
41719;SDS011;27405;53.316;-6.294;2023-06-14T09:01:52;13.27;;;5.03;;
41719;SDS011;27405;53.316;-6.294;2023-06-14T09:04:20;8.75;;;4.20;;
41719;SDS011;27405;53.316;-6.294;2023-06-14T09:06:47;12.35;;;4.57;;
41719;SDS011;27405;53.316;-6.294;2023-06-14T09:09:20;8.10;;;4.50;;
41719;SDS011;27405;53.316;-6.294;2023-06-14T09:11:48;10.40;;;4.78;;
41719;SDS011;27405;53.316;-6.294;2023-06-14T09:14:18;9.45;;;4.38;;
41719;SDS011;27405;53.316;-6.294;2023-06-14T09:16:44;12.05;;;4.60;;
41719;SDS011;27405;53.316;-6.294;2023-06-14T09:19:14;7.72;;;4.20;;
41719;SDS011;27405;53.316;-6.294;2023-06-14T09:21:49;6.53;;;4.07;;
41719;SDS011;27405;53.316;-6.294;2023-06-14T09:24:15;7.25;;;3.60;;
41719;SDS011;27405;53.316;-6.294;2023-06-14T09:26:41;10.02;;;3.78;;
41719;SDS011;27405;53.316;-6.294;2023-06-14T09:29:06;8.55;;;3.72;;
41719;SDS011;27405;53.316;-6.294;2023-06-14T09:31:35;6.47;;;3.50;;
41719;SDS011;27405;53.316;-6.294;2023-06-14T09:34:01;10.00;;;3.42;;
41719;SDS011;27405;53.316;-6.294;2023-06-14T09:36:27;6.22;;;3.92;;
41719;SDS011;27405;53.316;-6.294;2023-06-14T09:39:00;9.48;;;3.97;;
41719;SDS011;27405;53.316;-6.294;2023-06-14T09:41:40;10.52;;;3.50;;
41719;SDS011;27405;53.316;-6.294;2023-06-14T09:44:08;10.15;;;3.92;;
41719;SDS011;27405;53.316;-6.294;2023-06-14T09:46:34;6.78;;;3.65;;
41719;SDS011;27405;53.316;-6.294;2023-06-14T09:49:02;8.75;;;3.85;;
41719;SDS011;27405;53.316;-6.294;2023-06-14T09:51:28;9.45;;;3.60;;
41719;SDS011;27405;53.316;-6.294;2023-06-14T09:54:01;9.10;;;4.20;;
41719;SDS011;27405;53.316;-6.294;2023-06-14T09:56:30;9.80;;;3.92;;
41719;SDS011;27405;53.316;-6.294;2023-06-14T09:58:57;12.48;;;3.92;;
41719;SDS011;27405;53.316;-6.294;2023-06-14T10:01:24;13.07;;;4.03;;
41719;SDS011;27405;53.316;-6.294;2023-06-14T10:03:54;10.18;;;4.28;;
41719;SDS011;27405;53.316;-6.294;2023-06-14T10:06:26;11.20;;;4.05;;
41719;SDS011;27405;53.316;-6.294;2023-06-14T10:08:56;10.13;;;4.07;;
41719;SDS011;27405;53.316;-6.294;2023-06-14T10:11:25;9.20;;;4.10;;
41719;SDS011;27405;53.316;-6.294;2023-06-14T10:13:51;16.15;;;4.50;;
41719;SDS011;27405;53.316;-6.294;2023-06-14T10:16:24;11.10;;;4.43;;
41719;SDS011;27405;53.316;-6.294;2023-06-14T10:19:19;15.68;;;4.63;;
41719;SDS011;27405;53.316;-6.294;2023-06-14T10:22:18;13.27;;;4.25;;
41719;SDS011;27405;53.316;-6.294;2023-06-14T10:24:50;11.57;;;4.50;;
41719;SDS011;27405;53.316;-6.294;2023-06-14T10:27:16;13.70;;;4.18;;
41719;SDS011;27405;53.316;-6.294;2023-06-14T10:32:18;11.10;;;4.18;;
41719;SDS011;27405;53.316;-6.294;2023-06-14T10:34:44;13.52;;;4.70;;
41719;SDS011;27405;53.316;-6.294;2023-06-14T10:37:13;10.75;;;4.43;;
41719;SDS011;27405;53.316;-6.294;2023-06-14T10:39:40;13.10;;;4.70;;
41719;SDS011;27405;53.316;-6.294;2023-06-14T10:42:07;16.23;;;5.10;;
41719;SDS011;27405;53.316;-6.294;2023-06-14T10:44:50;11.57;;;4.47;;
41719;SDS011;27405;53.316;-6.294;2023-06-14T10:47:28;10.77;;;3.97;;
41719;SDS011;27405;53.316;-6.294;2023-06-14T10:50:06;12.63;;;4.40;;
41719;SDS011;27405;53.316;-6.294;2023-06-14T10:52:34;11.15;;;4.40;;
41719;SDS011;27405;53.316;-6.294;2023-06-14T10:55:04;14.40;;;4.57;;
41719;SDS011;27405;53.316;-6.294;2023-06-14T10:57:53;14.77;;;4.40;;
41719;SDS011;27405;53.316;-6.294;2023-06-14T11:00:24;10.88;;;4.55;;
41719;SDS011;27405;53.316;-6.294;2023-06-14T11:05:41;13.88;;;4.72;;
41719;SDS011;27405;53.316;-6.294;2023-06-14T11:11:15;11.43;;;4.68;;
41719;SDS011;27405;53.316;-6.294;2023-06-14T11:13:43;16.73;;;4.78;;
41719;SDS011;27405;53.316;-6.294;2023-06-14T11:18:37;15.65;;;4.95;;
41719;SDS011;27405;53.316;-6.294;2023-06-14T11:21:02;14.68;;;5.70;;
41719;SDS011;27405;53.316;-6.294;2023-06-14T11:23:28;15.25;;;5.82;;
41719;SDS011;27405;53.316;-6.294;2023-06-14T11:25:54;18.48;;;6.35;;
41719;SDS011;27405;53.316;-6.294;2023-06-14T11:28:20;14.18;;;5.68;;
41719;SDS011;27405;53.316;-6.294;2023-06-14T11:30:47;15.80;;;6.10;;
41719;SDS011;27405;53.316;-6.294;2023-06-14T11:33:17;12.55;;;4.97;;
41719;SDS011;27405;53.316;-6.294;2023-06-14T11:35:45;14.27;;;5.43;;
41719;SDS011;27405;53.316;-6.294;2023-06-14T11:38:11;15.23;;;5.78;;
41719;SDS011;27405;53.316;-6.294;2023-06-14T11:40:37;17.08;;;5.70;;
41719;SDS011;27405;53.316;-6.294;2023-06-14T11:43:04;16.60;;;5.68;;
41719;SDS011;27405;53.316;-6.294;2023-06-14T11:45:29;16.75;;;7.80;;
41719;SDS011;27405;53.316;-6.294;2023-06-14T11:47:56;15.63;;;6.38;;
41719;SDS011;27405;53.316;-6.294;2023-06-14T11:50:22;13.35;;;6.03;;
41719;SDS011;27405;53.316;-6.294;2023-06-14T11:55:21;15.05;;;5.43;;
41719;SDS011;27405;53.316;-6.294;2023-06-14T11:57:47;12.30;;;5.50;;
41719;SDS011;27405;53.316;-6.294;2023-06-14T12:00:13;12.23;;;5.65;;
41719;SDS011;27405;53.316;-6.294;2023-06-14T12:02:40;18.70;;;5.97;;
41719;SDS011;27405;53.316;-6.294;2023-06-14T12:05:07;16.42;;;5.20;;
41719;SDS011;27405;53.316;-6.294;2023-06-14T12:07:35;17.60;;;5.50;;
41719;SDS011;27405;53.316;-6.294;2023-06-14T12:10:05;18.05;;;5.65;;
41719;SDS011;27405;53.316;-6.294;2023-06-14T12:12:36;10.25;;;4.88;;
41719;SDS011;27405;53.316;-6.294;2023-06-14T12:15:04;13.77;;;5.50;;
41719;SDS011;27405;53.316;-6.294;2023-06-14T12:17:34;15.60;;;5.40;;
41719;SDS011;27405;53.316;-6.294;2023-06-14T12:20:10;16.45;;;5.70;;
41719;SDS011;27405;53.316;-6.294;2023-06-14T12:22:47;16.00;;;6.05;;
41719;SDS011;27405;53.316;-6.294;2023-06-14T12:27:52;16.40;;;5.70;;
41719;SDS011;27405;53.316;-6.294;2023-06-14T12:30:19;19.60;;;5.43;;
41719;SDS011;27405;53.316;-6.294;2023-06-14T12:32:47;11.27;;;4.32;;
41719;SDS011;27405;53.316;-6.294;2023-06-14T12:35:13;11.35;;;4.40;;
41719;SDS011;27405;53.316;-6.294;2023-06-14T12:37:40;12.80;;;4.70;;
41719;SDS011;27405;53.316;-6.294;2023-06-14T12:40:07;14.10;;;4.88;;
41719;SDS011;27405;53.316;-6.294;2023-06-14T12:42:37;13.13;;;4.70;;
41719;SDS011;27405;53.316;-6.294;2023-06-14T12:45:02;12.10;;;4.50;;
41719;SDS011;27405;53.316;-6.294;2023-06-14T12:47:28;13.35;;;4.68;;
41719;SDS011;27405;53.316;-6.294;2023-06-14T12:49:54;13.65;;;4.90;;
41719;SDS011;27405;53.316;-6.294;2023-06-14T12:52:20;12.60;;;4.95;;
41719;SDS011;27405;53.316;-6.294;2023-06-14T12:54:46;9.68;;;4.78;;
41719;SDS011;27405;53.316;-6.294;2023-06-14T12:57:12;13.95;;;4.68;;
41719;SDS011;27405;53.316;-6.294;2023-06-14T12:59:38;11.70;;;4.85;;
41719;SDS011;27405;53.316;-6.294;2023-06-14T13:02:10;11.68;;;4.78;;
41719;SDS011;27405;53.316;-6.294;2023-06-14T13:04:40;14.93;;;4.95;;
41719;SDS011;27405;53.316;-6.294;2023-06-14T13:07:06;16.60;;;4.90;;
41719;SDS011;27405;53.316;-6.294;2023-06-14T13:09:32;13.02;;;4.57;;
41719;SDS011;27405;53.316;-6.294;2023-06-14T13:11:58;15.90;;;4.97;;
41719;SDS011;27405;53.316;-6.294;2023-06-14T13:14:23;16.38;;;5.35;;
41719;SDS011;27405;53.316;-6.294;2023-06-14T13:16:49;17.05;;;5.50;;
41719;SDS011;27405;53.316;-6.294;2023-06-14T13:19:15;12.23;;;4.95;;
41719;SDS011;27405;53.316;-6.294;2023-06-14T13:21:41;14.13;;;5.13;;
41719;SDS011;27405;53.316;-6.294;2023-06-14T13:24:06;15.30;;;5.03;;
41719;SDS011;27405;53.316;-6.294;2023-06-14T13:26:33;12.40;;;4.55;;
41719;SDS011;27405;53.316;-6.294;2023-06-14T13:28:59;19.70;;;5.40;;
41719;SDS011;27405;53.316;-6.294;2023-06-14T13:31:25;15.98;;;5.20;;
41719;SDS011;27405;53.316;-6.294;2023-06-14T13:33:51;15.98;;;4.75;;
41719;SDS011;27405;53.316;-6.294;2023-06-14T13:36:16;14.13;;;5.10;;
41719;SDS011;27405;53.316;-6.294;2023-06-14T13:38:42;12.70;;;4.55;;
41719;SDS011;27405;53.316;-6.294;2023-06-14T13:41:08;13.88;;;4.95;;
41719;SDS011;27405;53.316;-6.294;2023-06-14T13:43:34;17.30;;;5.05;;
41719;SDS011;27405;53.316;-6.294;2023-06-14T13:45:59;15.18;;;5.15;;
41719;SDS011;27405;53.316;-6.294;2023-06-14T13:48:25;15.02;;;4.85;;
41719;SDS011;27405;53.316;-6.294;2023-06-14T13:50:51;12.40;;;4.63;;
41719;SDS011;27405;53.316;-6.294;2023-06-14T13:53:17;16.27;;;4.82;;
41719;SDS011;27405;53.316;-6.294;2023-06-14T13:55:43;12.65;;;4.50;;
41719;SDS011;27405;53.316;-6.294;2023-06-14T13:58:08;15.25;;;4.50;;
41719;SDS011;27405;53.316;-6.294;2023-06-14T14:00:34;12.82;;;4.88;;
41719;SDS011;27405;53.316;-6.294;2023-06-14T14:03:05;12.68;;;4.63;;
41719;SDS011;27405;53.316;-6.294;2023-06-14T14:05:31;17.30;;;4.70;;
41719;SDS011;27405;53.316;-6.294;2023-06-14T14:07:56;12.30;;;4.47;;
41719;SDS011;27405;53.316;-6.294;2023-06-14T14:10:24;12.43;;;4.13;;
41719;SDS011;27405;53.316;-6.294;2023-06-14T14:12:50;11.95;;;4.47;;
41719;SDS011;27405;53.316;-6.294;2023-06-14T14:15:18;11.20;;;4.47;;
41719;SDS011;27405;53.316;-6.294;2023-06-14T14:17:44;11.88;;;4.13;;
41719;SDS011;27405;53.316;-6.294;2023-06-14T14:20:10;11.13;;;4.03;;
41719;SDS011;27405;53.316;-6.294;2023-06-14T14:22:43;13.45;;;4.40;;
41719;SDS011;27405;53.316;-6.294;2023-06-14T14:27:35;12.10;;;4.25;;
41719;SDS011;27405;53.316;-6.294;2023-06-14T14:30:02;9.18;;;4.07;;
41719;SDS011;27405;53.316;-6.294;2023-06-14T14:32:29;11.13;;;4.20;;
41719;SDS011;27405;53.316;-6.294;2023-06-14T14:34:55;11.13;;;3.83;;
41719;SDS011;27405;53.316;-6.294;2023-06-14T14:37:20;10.77;;;4.22;;
41719;SDS011;27405;53.316;-6.294;2023-06-14T14:39:46;9.55;;;3.83;;
41719;SDS011;27405;53.316;-6.294;2023-06-14T14:42:12;8.70;;;3.88;;
41719;SDS011;27405;53.316;-6.294;2023-06-14T14:44:38;9.65;;;4.00;;
41719;SDS011;27405;53.316;-6.294;2023-06-14T14:47:04;13.23;;;4.13;;